Date,TemperatureHighF,TemperatureAvgF,TemperatureLowF,DewpointHighF,DewpointAvgF,DewpointLowF,HumidityHigh,HumidityAvg,HumidityLow,PressureMaxIn,PressureMinIn,WindSpeedMaxMPH,WindSpeedAvgMPH,GustSpeedMaxMPH,PrecipitationSumIn
2013-5-1,78.4,73.8,69.3,74.4,70.6,66.6,95,90,83,29.99,29.80,18,4,35,0.56
2013-5-2,75.8,71.2,69.1,70.6,68.6,67.1,96,92,79,29.93,29.79,7,2,13,0.44
2013-5-3,83.3,74.8,67.9,72.8,69.2,66.1,96,83,68,29.84,29.71,13,4,20,0.00
2013-5-4,82.4,75.7,71.2,72.0,68.4,65.8,89,79,67,29.82,29.69,17,10,25,0.00
2013-5-5,78.3,72.3,68.8,67.9,60.2,54.9,89,67,49,29.96,29.78,15,10,24,0.00
2013-5-6,80.0,73.1,68.5,66.5,62.5,58.8,78,70,59,30.01,29.92,9,6,14,0.00
2013-5-7,81.4,73.8,66.0,63.4,61.3,58.9,81,65,53,30.06,29.98,12,6,18,0.00
2013-5-8,86.5,73.9,64.3,66.0,62.5,59.0,93,70,43,30.14,30.04,8,2,12,0.00
2013-5-9,88.4,74.9,65.5,66.5,63.0,56.1,91,69,34,30.14,30.06,6,2,9,0.00
2013-5-10,90.1,78.8,68.8,74.9,71.0,65.7,93,78,57,30.12,30.00,7,2,12,0.00
2013-5-11,89.8,81.0,74.9,77.5,75.2,72.7,95,84,64,30.05,29.98,7,2,14,0.00
2013-5-12,89.8,81.1,76.2,76.8,74.8,72.4,94,82,64,30.04,29.90,10,4,17,0.00
2013-5-13,85.2,78.0,71.3,73.5,68.8,55.7,91,74,56,30.11,29.99,13,5,20,0.00
2013-5-14,87.0,74.8,64.5,62.3,58.1,51.8,79,58,31,30.17,30.08,10,5,20,0.00
2013-5-15,87.7,76.6,69.2,65.0,60.8,58.5,75,59,42,30.18,30.05,8,4,16,0.00
2013-5-16,88.9,77.6,69.0,66.8,63.9,57.8,82,64,36,30.10,29.99,9,4,15,0.00
2013-5-17,90.0,79.7,71.5,70.1,67.7,64.0,86,68,43,30.07,30.00,10,4,15,0.00
2013-5-18,91.8,81.1,73.1,73.5,70.5,68.4,95,72,50,30.09,30.00,10,3,15,0.00
2013-5-19,91.2,81.3,75.5,73.6,71.6,68.5,90,74,52,30.09,29.97,8,2,13,0.00
2013-5-20,93.4,79.5,73.5,74.9,71.6,68.3,89,78,50,30.05,29.95,15,3,39,0.06
2013-5-21,91.9,79.1,71.4,74.8,70.6,68.1,93,77,49,30.00,29.89,10,4,18,0.00
2013-5-22,90.4,80.0,72.4,76.3,72.8,68.6,95,79,59,29.95,29.88,10,4,16,0.00
2013-5-23,88.5,80.7,75.3,73.8,72.1,70.5,90,76,58,30.02,29.90,12,5,16,0.00
2013-5-24,91.4,81.6,74.7,76.6,74.1,70.9,94,79,53,30.06,29.95,13,4,21,0.00
2013-5-25,91.6,81.8,72.7,74.5,69.2,65.2,90,68,43,30.13,30.02,12,4,21,0.00
2013-5-26,89.4,79.5,71.6,67.8,65.4,59.3,83,64,38,30.17,30.06,10,5,20,0.00
2013-5-27,87.7,76.9,71.5,74.4,68.5,64.4,93,76,57,30.15,30.01,13,5,23,1.11
2013-5-28,86.7,78.4,74.3,76.6,72.4,70.1,91,82,64,30.10,30.00,10,6,18,0.04
2013-5-29,83.1,77.3,73.8,73.5,71.8,69.3,93,84,68,30.06,29.98,13,6,24,0.01
2013-5-30,87.3,78.5,73.3,75.4,72.1,69.4,91,81,64,30.03,29.94,13,6,21,0.04
2013-5-31,87.5,78.4,73.7,77.2,73.4,70.8,96,85,66,30.03,29.97,9,4,22,0.64